Airport ID:KRTS
Update Time (UTC):21/04/2018 09:26
Wind Speed (Knots):1
Wind Direction (Magnetic):20
Temperature (°C):4
Dew Point (°C):-3
Humidity (%):64
Altimeter (inHg):30.24
Density Altitude (Feet):
Visibility (Miles):10+
Clouds (Hundreds of feet):CLR
Present Weather:
METAR:METAR KRTS 210925Z AUTO 00000KT 10SM CLR 04/M03 A3024 RMK AO2

The data displayed is for advisory purposes only and is not to be used for flight planning or operations.

This page is not automatically refreshed. Reload the page to see current data.